createdAt,value
2023-01-06T00:01:33.514Z,27.60
2023-01-06T00:04:01.424Z,28.55
2023-01-06T00:06:31.017Z,29.70
2023-01-06T00:09:00.777Z,29.67
2023-01-06T00:11:27.677Z,30.02
2023-01-06T00:13:56.248Z,28.80
2023-01-06T00:16:23.396Z,28.38
2023-01-06T00:18:54.109Z,27.73
2023-01-06T00:21:21.140Z,28.70
2023-01-06T00:23:48.002Z,26.42
2023-01-06T00:26:14.936Z,28.98
2023-01-06T00:28:41.909Z,25.85
2023-01-06T00:31:10.902Z,28.75
2023-01-06T00:33:38.642Z,26.55
2023-01-06T00:39:03.730Z,28.20
2023-01-06T00:41:48.980Z,28.08
2023-01-06T00:44:15.937Z,28.30
2023-01-06T00:46:42.976Z,29.10
2023-01-06T00:49:09.875Z,29.52
2023-01-06T00:51:38.888Z,29.95
2023-01-06T00:54:11.166Z,28.27
2023-01-06T00:56:39.737Z,28.38
2023-01-06T00:59:07.393Z,27.05
2023-01-06T01:01:35.466Z,28.27
2023-01-06T01:04:02.670Z,29.58
2023-01-06T01:06:29.528Z,26.88
2023-01-06T01:08:57.924Z,27.30
2023-01-06T01:11:44.309Z,28.02
2023-01-06T01:14:13.080Z,26.27
2023-01-06T01:16:41.512Z,26.83
2023-01-06T01:19:09.006Z,25.98
2023-01-06T01:21:35.893Z,25.80
2023-01-06T01:24:02.773Z,25.05
2023-01-06T01:26:29.681Z,26.73
2023-01-06T01:28:56.763Z,23.48
2023-01-06T01:31:23.603Z,25.63
2023-01-06T01:33:50.527Z,24.95
2023-01-06T01:36:18.705Z,25.20
2023-01-06T01:38:45.547Z,25.65
2023-01-06T01:41:17.630Z,24.85
2023-01-06T01:43:45.649Z,23.90
2023-01-06T01:46:14.668Z,25.48
2023-01-06T01:48:41.628Z,24.60
2023-01-06T01:51:14.156Z,25.48
2023-01-06T01:53:52.251Z,23.58
2023-01-06T01:56:24.838Z,24.58
2023-01-06T01:59:00.033Z,25.42
2023-01-06T02:01:27.375Z,24.65
2023-01-06T02:03:54.773Z,23.98
2023-01-06T02:06:24.753Z,24.52
2023-01-06T02:09:04.414Z,24.10
2023-01-06T02:11:34.155Z,24.27
2023-01-06T02:14:13.124Z,24.50
2023-01-06T02:16:54.942Z,24.75
2023-01-06T02:19:35.082Z,24.73
2023-01-06T02:22:38.672Z,24.10
2023-01-06T02:25:35.311Z,24.13
2023-01-06T02:28:22.371Z,23.83
2023-01-06T02:31:11.080Z,24.05
2023-01-06T02:33:46.375Z,23.95
2023-01-06T02:36:40.285Z,23.58
2023-01-06T02:39:15.079Z,23.45
2023-01-06T02:42:11.260Z,25.00
2023-01-06T02:44:55.699Z,24.67
2023-01-06T02:47:56.741Z,24.10
2023-01-06T02:50:43.959Z,25.20
2023-01-06T02:53:50.747Z,23.40
2023-01-06T02:56:21.684Z,26.27
2023-01-06T03:02:31.467Z,24.70
2023-01-06T03:05:01.776Z,25.02
2023-01-06T03:07:31.362Z,24.65
2023-01-06T03:10:01.513Z,24.55
2023-01-06T03:12:41.580Z,25.42
2023-01-06T03:15:09.414Z,24.13
2023-01-06T03:17:36.466Z,24.60
2023-01-06T03:20:03.589Z,24.55
2023-01-06T03:22:31.929Z,24.10
2023-01-06T03:25:00.641Z,25.98
2023-01-06T03:27:28.103Z,24.05
2023-01-06T03:29:55.276Z,24.48
2023-01-06T03:32:30.961Z,25.60
2023-01-06T03:35:08.502Z,25.15
2023-01-06T03:37:54.343Z,24.25
2023-01-06T03:40:42.143Z,24.30
2023-01-06T03:43:35.584Z,23.33
2023-01-06T03:46:19.103Z,24.35
2023-01-06T03:49:01.075Z,22.55
2023-01-06T03:51:53.330Z,23.38
2023-01-06T03:54:33.583Z,23.73
2023-01-06T03:57:15.296Z,22.80
2023-01-06T03:59:48.836Z,24.70
2023-01-06T04:02:18.924Z,23.25
2023-01-06T04:05:00.120Z,22.65
2023-01-06T04:07:26.971Z,24.02
2023-01-06T04:09:53.811Z,23.42
2023-01-06T04:12:38.670Z,23.05
2023-01-06T04:15:12.086Z,22.55
2023-01-06T04:17:40.471Z,22.67
2023-01-06T04:20:10.408Z,20.95
2023-01-06T04:22:37.304Z,22.55
2023-01-06T04:25:05.524Z,21.60
2023-01-06T04:27:32.440Z,20.52
2023-01-06T04:29:59.445Z,22.88
2023-01-06T04:32:26.322Z,21.73
2023-01-06T04:34:53.169Z,19.95
2023-01-06T04:37:21.419Z,20.73
2023-01-06T04:39:48.586Z,21.77
2023-01-06T04:42:15.693Z,21.45
2023-01-06T04:44:42.925Z,19.98
2023-01-06T04:47:10.837Z,23.40
2023-01-06T04:49:38.119Z,22.00
2023-01-06T04:52:05.635Z,22.02
2023-01-06T04:54:32.613Z,20.33
2023-01-06T04:56:59.402Z,21.60
2023-01-06T04:59:26.347Z,20.35
2023-01-06T05:01:53.236Z,19.83
2023-01-06T05:04:20.454Z,21.02
2023-01-06T05:06:47.258Z,19.48
2023-01-06T05:09:14.182Z,20.60
2023-01-06T05:11:41.237Z,20.77
2023-01-06T05:14:08.086Z,21.13
2023-01-06T05:16:35.320Z,18.80
2023-01-06T05:19:02.239Z,18.70
2023-01-06T05:21:32.483Z,16.38
2023-01-06T05:24:00.373Z,17.75
2023-01-06T05:26:28.749Z,16.42
2023-01-06T05:28:55.921Z,18.02
2023-01-06T05:31:23.428Z,16.70
2023-01-06T05:33:50.425Z,16.83
2023-01-06T05:36:18.305Z,14.90
2023-01-06T05:38:50.874Z,16.67
2023-01-06T05:41:17.899Z,20.90
2023-01-06T05:43:44.822Z,21.33
2023-01-06T05:46:12.523Z,18.67
2023-01-06T05:48:39.933Z,17.95
2023-01-06T05:51:09.460Z,19.83
2023-01-06T05:53:39.063Z,18.98
2023-01-06T05:56:08.321Z,18.05
2023-01-06T05:58:36.736Z,19.05
2023-01-06T06:01:04.903Z,19.45
2023-01-06T06:03:32.256Z,19.73
2023-01-06T06:06:03.819Z,21.73
2023-01-06T06:08:30.659Z,20.73
2023-01-06T06:11:02.218Z,20.67
2023-01-06T06:13:29.012Z,19.52
2023-01-06T06:16:05.518Z,21.00
2023-01-06T06:18:32.606Z,19.70
2023-01-06T06:21:03.779Z,21.70
2023-01-06T06:23:31.134Z,20.85
2023-01-06T06:25:58.383Z,21.77
2023-01-06T06:28:25.203Z,22.00
2023-01-06T06:30:53.157Z,23.08
2023-01-06T06:33:21.212Z,20.80
2023-01-06T06:35:57.877Z,22.23
2023-01-06T06:38:25.112Z,22.80
2023-01-06T06:40:52.247Z,24.77
2023-01-06T06:43:19.220Z,24.95
2023-01-06T06:45:47.060Z,23.75
2023-01-06T06:48:14.711Z,22.05
2023-01-06T06:50:41.608Z,22.35
2023-01-06T06:53:08.987Z,22.70
2023-01-06T06:55:35.998Z,22.48
2023-01-06T06:58:02.889Z,22.92
2023-01-06T07:00:30.543Z,22.88
2023-01-06T07:02:57.525Z,22.13
2023-01-06T07:05:25.785Z,23.38
2023-01-06T07:07:52.722Z,25.10
2023-01-06T07:10:19.682Z,25.08
2023-01-06T07:12:46.497Z,25.20
2023-01-06T07:15:13.499Z,25.63
2023-01-06T07:17:41.911Z,26.10
2023-01-06T07:20:09.762Z,26.23
2023-01-06T07:22:40.504Z,25.50
2023-01-06T07:25:09.067Z,26.13
2023-01-06T07:27:36.414Z,25.15
2023-01-06T07:30:05.474Z,25.13
2023-01-06T07:32:32.767Z,26.38
2023-01-06T07:34:59.623Z,24.48
2023-01-06T07:37:26.546Z,27.65
2023-01-06T07:39:53.417Z,25.65
2023-01-06T07:42:20.759Z,27.05
2023-01-06T07:44:47.560Z,26.38
2023-01-06T07:47:14.731Z,27.67
2023-01-06T07:49:41.645Z,29.10
2023-01-06T07:52:08.565Z,26.98
2023-01-06T07:54:35.499Z,28.38
2023-01-06T07:57:02.515Z,27.25
2023-01-06T07:59:29.429Z,27.23
2023-01-06T08:01:56.328Z,26.92
2023-01-06T08:04:23.412Z,26.95
2023-01-06T08:06:50.815Z,27.42
2023-01-06T08:09:17.824Z,25.55
2023-01-06T08:11:44.603Z,25.80
2023-01-06T08:14:12.806Z,27.42
2023-01-06T08:16:40.545Z,25.67
2023-01-06T08:19:07.735Z,26.90
2023-01-06T08:21:34.618Z,25.98
2023-01-06T08:24:01.424Z,25.77
2023-01-06T08:26:28.680Z,24.27
2023-01-06T08:29:03.369Z,26.83
2023-01-06T08:31:30.360Z,26.05
2023-01-06T08:33:57.234Z,25.60
2023-01-06T08:36:27.853Z,25.77
2023-01-06T08:38:54.740Z,27.60
2023-01-06T08:41:21.878Z,25.38
2023-01-06T08:43:51.060Z,25.90
2023-01-06T08:46:20.062Z,25.45
2023-01-06T08:48:48.010Z,24.55
2023-01-06T08:51:18.800Z,26.17
2023-01-06T08:53:46.199Z,24.25
2023-01-06T08:56:25.460Z,24.38
2023-01-06T08:58:55.033Z,24.23
2023-01-06T09:01:28.834Z,24.55
2023-01-06T09:03:57.561Z,24.83
2023-01-06T09:06:24.751Z,26.52
2023-01-06T09:08:51.847Z,25.42
2023-01-06T09:11:20.893Z,24.20
2023-01-06T09:13:50.570Z,23.50
2023-01-06T09:16:18.131Z,24.48
2023-01-06T09:18:49.799Z,23.42
2023-01-06T09:21:22.488Z,24.02
2023-01-06T09:23:49.578Z,26.13
2023-01-06T09:26:19.320Z,24.77
2023-01-06T09:28:47.699Z,24.83
2023-01-06T09:31:14.771Z,25.40
2023-01-06T09:33:41.633Z,23.42
2023-01-06T09:36:08.713Z,24.45
2023-01-06T09:38:35.823Z,23.92
2023-01-06T09:41:36.134Z,22.90
2023-01-06T09:44:25.836Z,23.92
2023-01-06T09:46:53.036Z,24.60
2023-01-06T09:49:27.005Z,22.17
2023-01-06T09:52:01.559Z,24.48
2023-01-06T09:54:34.977Z,23.35
2023-01-06T09:57:12.193Z,22.42
2023-01-06T09:59:54.247Z,23.10
2023-01-06T10:02:35.187Z,23.35
2023-01-06T10:05:08.606Z,23.45
2023-01-06T10:08:00.540Z,23.83
2023-01-06T10:10:38.022Z,22.20
2023-01-06T10:13:10.631Z,21.67
2023-01-06T10:15:48.997Z,21.35
2023-01-06T10:18:43.693Z,22.77
2023-01-06T10:21:28.130Z,21.38
2023-01-06T10:24:20.838Z,21.45
2023-01-06T10:27:04.381Z,21.25
2023-01-06T10:29:37.315Z,22.73
2023-01-06T10:32:11.908Z,24.02
2023-01-06T10:34:38.986Z,21.25
2023-01-06T10:37:23.730Z,22.40
2023-01-06T10:40:02.339Z,21.80
2023-01-06T10:42:56.292Z,22.35
2023-01-06T10:45:43.299Z,21.80
2023-01-06T10:48:25.937Z,19.50
2023-01-06T10:51:35.232Z,21.42
2023-01-06T10:54:13.897Z,20.15
2023-01-06T10:57:04.786Z,20.52
2023-01-06T10:59:33.062Z,20.00
2023-01-06T11:02:04.170Z,20.40
2023-01-06T11:04:32.587Z,20.88
2023-01-06T11:07:03.890Z,21.70
2023-01-06T11:09:42.745Z,21.87
2023-01-06T11:12:24.685Z,21.77
2023-01-06T11:15:00.912Z,20.10
2023-01-06T11:17:29.154Z,22.65
2023-01-06T11:20:14.276Z,20.30
2023-01-06T11:22:44.110Z,20.00
2023-01-06T11:28:23.804Z,19.60
2023-01-06T11:31:14.329Z,20.52
2023-01-06T11:33:48.891Z,18.92
2023-01-06T11:36:17.485Z,19.25
2023-01-06T11:38:50.715Z,19.05
2023-01-06T11:41:30.439Z,18.08
2023-01-06T11:44:30.950Z,20.02
2023-01-06T11:47:02.535Z,19.67
2023-01-06T11:49:51.978Z,19.80
2023-01-06T11:52:33.626Z,19.70
2023-01-06T11:55:12.278Z,20.67
2023-01-06T11:57:56.616Z,20.98
2023-01-06T12:00:36.813Z,19.50
2023-01-06T12:03:31.385Z,21.08
2023-01-06T12:06:04.724Z,19.25
2023-01-06T12:08:55.882Z,20.48
2023-01-06T12:11:47.680Z,20.17
2023-01-06T12:14:28.538Z,20.05
2023-01-06T12:17:25.532Z,21.60
2023-01-06T12:19:58.489Z,20.17
2023-01-06T12:25:33.944Z,19.40
2023-01-06T12:28:09.793Z,20.45
2023-01-06T12:31:00.641Z,19.42
2023-01-06T12:33:59.728Z,20.35
2023-01-06T12:39:47.964Z,20.40
2023-01-06T12:42:20.852Z,20.25
2023-01-06T12:45:17.270Z,21.13
2023-01-06T12:47:59.295Z,21.05
2023-01-06T12:50:48.861Z,21.63
2023-01-06T12:53:30.931Z,19.73
2023-01-06T12:56:22.851Z,21.20
2023-01-06T12:59:12.344Z,21.63
2023-01-06T13:01:50.638Z,22.35
2023-01-06T13:04:55.020Z,22.17
2023-01-06T13:07:39.890Z,21.60
2023-01-06T13:10:38.309Z,21.08
2023-01-06T13:13:28.581Z,22.70
2023-01-06T13:16:10.343Z,24.02
2023-01-06T13:19:13.662Z,23.40
2023-01-06T13:21:43.423Z,23.27
2023-01-06T13:24:19.318Z,25.88
2023-01-06T13:27:19.948Z,22.67
2023-01-06T13:30:05.705Z,23.30
2023-01-06T13:32:59.666Z,23.13
2023-01-06T13:35:48.952Z,24.20
2023-01-06T13:38:28.422Z,23.35
2023-01-06T13:41:00.156Z,23.60
2023-01-06T13:43:32.306Z,24.00
2023-01-06T13:46:16.503Z,23.30
2023-01-06T13:49:04.932Z,23.30
2023-01-06T13:51:37.750Z,21.90
2023-01-06T13:54:06.188Z,23.52
2023-01-06T13:56:36.256Z,23.20
2023-01-06T13:59:21.737Z,23.15
2023-01-06T14:01:50.133Z,23.60
2023-01-06T14:04:29.294Z,26.20
2023-01-06T14:06:56.500Z,23.98
2023-01-06T14:09:23.869Z,24.45
2023-01-06T14:11:51.546Z,23.40
2023-01-06T14:14:29.029Z,22.77
2023-01-06T14:16:59.730Z,23.98
2023-01-06T14:19:42.303Z,22.05
2023-01-06T14:22:25.176Z,22.83
2023-01-06T14:24:56.028Z,24.27
2023-01-06T14:27:46.040Z,23.60
2023-01-06T14:30:52.939Z,24.48
2023-01-06T14:33:25.120Z,23.85
2023-01-06T14:38:26.921Z,24.58
2023-01-06T14:41:01.963Z,24.30
2023-01-06T14:43:43.995Z,24.00
2023-01-06T14:46:23.184Z,24.27
2023-01-06T14:49:04.033Z,24.50
2023-01-06T14:51:34.616Z,25.10
2023-01-06T14:54:14.250Z,23.77
2023-01-06T14:56:41.880Z,25.08
2023-01-06T14:59:15.871Z,24.30
2023-01-06T15:01:45.356Z,22.83
2023-01-06T15:04:24.877Z,23.75
2023-01-06T15:07:12.756Z,23.42
2023-01-06T15:09:41.761Z,27.05
2023-01-06T15:12:32.404Z,27.20
2023-01-06T15:15:35.215Z,24.40
2023-01-06T15:18:02.817Z,25.33
2023-01-06T15:20:38.534Z,24.33
2023-01-06T15:23:05.622Z,25.50
2023-01-06T15:25:35.765Z,26.08
2023-01-06T15:28:02.781Z,24.48
2023-01-06T15:30:34.973Z,24.77
2023-01-06T15:35:34.152Z,24.35
2023-01-06T15:38:19.179Z,25.50
2023-01-06T15:40:46.240Z,29.05
2023-01-06T15:43:23.696Z,25.55
2023-01-06T15:49:07.168Z,26.70
2023-01-06T15:51:34.669Z,26.02
2023-01-06T15:54:02.172Z,25.60
2023-01-06T15:56:33.203Z,26.58
2023-01-06T15:59:01.950Z,25.38
2023-01-06T16:01:29.164Z,26.45
2023-01-06T16:04:01.364Z,25.67
2023-01-06T16:09:38.033Z,25.40
2023-01-06T16:12:04.881Z,26.33
2023-01-06T16:14:38.937Z,26.83
2023-01-06T16:17:14.531Z,27.30
2023-01-06T16:20:00.120Z,26.25
2023-01-06T16:22:32.620Z,25.25
2023-01-06T16:25:25.006Z,25.50
2023-01-06T16:28:05.916Z,26.77
2023-01-06T16:30:36.814Z,26.45
2023-01-06T16:33:06.980Z,26.23
2023-01-06T16:35:42.981Z,26.42
2023-01-06T16:38:14.498Z,27.25
2023-01-06T16:40:41.691Z,27.52
2023-01-06T16:43:08.884Z,26.48
2023-01-06T16:45:42.250Z,26.80
2023-01-06T16:48:17.770Z,26.45
2023-01-06T16:50:54.854Z,26.85
2023-01-06T16:53:33.781Z,27.92
2023-01-06T16:56:03.992Z,26.98
2023-01-06T16:58:42.891Z,28.02
2023-01-06T17:01:27.188Z,26.25
2023-01-06T17:04:15.642Z,26.58
2023-01-06T17:06:48.150Z,28.77
2023-01-06T17:09:15.460Z,27.83
2023-01-06T17:11:43.262Z,28.65
2023-01-06T17:14:19.015Z,28.30
2023-01-06T17:16:48.455Z,27.65
2023-01-06T17:19:23.401Z,27.20
2023-01-06T17:21:53.055Z,29.05
2023-01-06T17:24:25.869Z,27.40
2023-01-06T17:27:26.958Z,28.45
2023-01-06T17:30:00.597Z,27.45
2023-01-06T17:32:40.272Z,28.30
2023-01-06T17:35:28.638Z,28.45
2023-01-06T17:38:00.660Z,27.30
2023-01-06T17:40:38.815Z,28.63
2023-01-06T17:43:18.427Z,29.08
2023-01-06T17:46:06.821Z,29.20
2023-01-06T17:48:34.776Z,28.60
2023-01-06T17:54:11.350Z,28.88
2023-01-06T17:56:38.925Z,28.58
2023-01-06T17:59:15.722Z,30.08
2023-01-06T18:01:45.903Z,28.73
2023-01-06T18:04:16.718Z,28.67
2023-01-06T18:06:54.450Z,29.20
2023-01-06T18:09:23.714Z,28.10
2023-01-06T18:11:52.651Z,28.73
2023-01-06T18:14:51.481Z,28.65
2023-01-06T18:17:25.938Z,28.10
2023-01-06T18:19:52.909Z,29.13
2023-01-06T18:22:23.203Z,28.63
2023-01-06T18:24:58.037Z,27.38
2023-01-06T18:30:23.789Z,29.08
2023-01-06T18:32:54.322Z,26.60
2023-01-06T18:35:28.964Z,27.27
2023-01-06T18:38:02.398Z,30.00
2023-01-06T18:40:36.489Z,28.83
2023-01-06T18:46:19.786Z,29.52
2023-01-06T18:48:48.311Z,29.20
2023-01-06T18:51:33.391Z,30.35
2023-01-06T18:54:08.139Z,31.17
2023-01-06T19:02:35.907Z,30.55
2023-01-06T19:05:11.578Z,30.63
2023-01-06T19:07:40.454Z,28.83
2023-01-06T19:10:35.086Z,28.85
2023-01-06T19:13:14.390Z,29.20
2023-01-06T19:15:45.868Z,30.70
2023-01-06T19:18:17.779Z,31.98
2023-01-06T19:20:47.736Z,31.20
2023-01-06T19:23:25.324Z,33.92
2023-01-06T19:26:07.368Z,31.15
2023-01-06T19:36:59.212Z,31.27
2023-01-06T19:39:39.730Z,33.58
2023-01-06T19:42:13.879Z,32.40
2023-01-06T19:44:42.514Z,31.13
2023-01-06T19:47:43.675Z,32.63
2023-01-06T19:50:20.044Z,33.83
2023-01-06T19:55:42.063Z,32.55
2023-01-06T19:58:21.529Z,33.13
2023-01-06T20:00:50.294Z,33.70
2023-01-06T20:03:37.897Z,33.45
2023-01-06T20:06:06.945Z,32.53
2023-01-06T20:08:34.041Z,35.55
2023-01-06T20:11:01.495Z,38.35
2023-01-06T20:13:33.369Z,37.72
2023-01-06T20:16:02.636Z,30.83
2023-01-06T20:26:53.952Z,33.20
2023-01-06T20:29:20.999Z,41.85
2023-01-06T20:31:50.285Z,50.97
2023-01-06T20:34:18.802Z,47.45
2023-01-06T20:36:45.950Z,43.67
2023-01-06T20:39:16.399Z,44.35
2023-01-06T20:41:43.361Z,42.30
2023-01-06T20:44:10.766Z,37.65
2023-01-06T20:46:37.647Z,39.80
2023-01-06T20:49:04.546Z,38.97
2023-01-06T20:51:34.786Z,38.00
2023-01-06T20:54:01.658Z,38.58
2023-01-06T20:56:28.629Z,39.40
2023-01-06T20:58:58.380Z,35.75
2023-01-06T21:01:25.405Z,36.28
2023-01-06T21:03:52.465Z,34.75
2023-01-06T21:06:19.969Z,34.58
2023-01-06T21:08:47.293Z,35.25
2023-01-06T21:11:14.205Z,32.42
2023-01-06T21:13:41.253Z,32.22
2023-01-06T21:16:09.988Z,31.33
2023-01-06T21:18:37.070Z,32.08
2023-01-06T21:21:04.643Z,35.70
2023-01-06T21:23:31.484Z,35.75
2023-01-06T21:25:58.332Z,35.15
2023-01-06T21:28:25.289Z,34.95
2023-01-06T21:30:52.136Z,36.75
2023-01-06T21:33:21.478Z,37.35
2023-01-06T21:38:29.339Z,39.08
2023-01-06T21:41:16.401Z,39.00
2023-01-06T21:43:43.258Z,37.17
2023-01-06T21:46:12.645Z,35.55
2023-01-06T21:48:44.925Z,35.05
2023-01-06T21:51:11.951Z,36.08
2023-01-06T21:53:39.222Z,35.78
2023-01-06T21:56:09.207Z,35.15
2023-01-06T21:58:36.294Z,34.60
2023-01-06T22:01:07.289Z,32.78
2023-01-06T22:03:34.643Z,34.20
2023-01-06T22:06:03.969Z,34.85
2023-01-06T22:08:32.709Z,33.15
2023-01-06T22:10:59.992Z,34.47
2023-01-06T22:13:27.245Z,35.00
2023-01-06T22:15:54.256Z,32.75
2023-01-06T22:18:21.339Z,34.58
2023-01-06T22:20:49.251Z,35.28
2023-01-06T22:23:19.276Z,35.05
2023-01-06T22:25:46.692Z,35.92
2023-01-06T22:28:17.063Z,36.47
2023-01-06T22:30:44.193Z,34.05
2023-01-06T22:33:15.105Z,35.95
2023-01-06T22:35:42.172Z,34.80
2023-01-06T22:38:09.109Z,36.33
2023-01-06T22:40:37.955Z,35.17
2023-01-06T22:43:11.039Z,37.35
2023-01-06T22:45:38.979Z,34.90
2023-01-06T22:48:07.728Z,36.28
2023-01-06T22:50:37.364Z,35.67
2023-01-06T22:53:04.266Z,35.25
2023-01-06T22:55:32.115Z,35.00
2023-01-06T22:58:03.794Z,34.72
2023-01-06T23:00:30.740Z,36.10
2023-01-06T23:02:57.932Z,34.03
2023-01-06T23:05:24.971Z,36.53
2023-01-06T23:07:53.052Z,36.83
2023-01-06T23:10:20.028Z,35.97
2023-01-06T23:12:46.866Z,35.67
2023-01-06T23:15:13.993Z,36.63
2023-01-06T23:17:40.902Z,35.25
2023-01-06T23:20:08.285Z,37.53
2023-01-06T23:22:35.317Z,37.72
2023-01-06T23:25:02.216Z,38.42
2023-01-06T23:27:31.232Z,40.50
2023-01-06T23:30:09.562Z,39.35
2023-01-06T23:32:36.443Z,38.28
2023-01-06T23:35:03.637Z,36.85
2023-01-06T23:37:30.506Z,38.47
2023-01-06T23:40:00.530Z,39.15
2023-01-06T23:42:28.781Z,39.42
2023-01-06T23:44:57.153Z,38.72
2023-01-06T23:47:24.124Z,40.28
2023-01-06T23:49:55.269Z,38.58
2023-01-06T23:52:22.810Z,38.78
2023-01-06T23:54:54.184Z,40.17
2023-01-06T23:57:21.114Z,40.78
2023-01-06T23:59:50.059Z,39.45
